sensor_id;sensor_type;location;lat;lon;timestamp;temperature;humidity
48264;DHT22;34086;51.076;13.722;2023-05-07T00:00:57;10.70;99.90
48264;DHT22;34086;51.076;13.722;2023-05-07T00:02:00;10.70;99.90
48264;DHT22;34086;51.076;13.722;2023-05-07T00:03:01;10.70;99.90
48264;DHT22;34086;51.076;13.722;2023-05-07T00:04:02;10.70;99.90
48264;DHT22;34086;51.076;13.722;2023-05-07T00:05:03;10.70;99.90
48264;DHT22;34086;51.076;13.722;2023-05-07T00:06:04;10.70;99.90
48264;DHT22;34086;51.076;13.722;2023-05-07T00:07:05;10.70;99.90
48264;DHT22;34086;51.076;13.722;2023-05-07T00:08:05;10.70;99.90
48264;DHT22;34086;51.076;13.722;2023-05-07T00:09:06;10.70;99.90
48264;DHT22;34086;51.076;13.722;2023-05-07T00:10:07;10.60;99.90
48264;DHT22;34086;51.076;13.722;2023-05-07T00:11:08;10.70;99.90
48264;DHT22;34086;51.076;13.722;2023-05-07T00:12:08;10.70;99.90
48264;DHT22;34086;51.076;13.722;2023-05-07T00:13:09;10.70;99.90
48264;DHT22;34086;51.076;13.722;2023-05-07T00:14:10;10.70;99.90
48264;DHT22;34086;51.076;13.722;2023-05-07T00:15:10;10.60;99.90
48264;DHT22;34086;51.076;13.722;2023-05-07T00:16:11;10.60;99.90
48264;DHT22;34086;51.076;13.722;2023-05-07T00:17:11;10.60;99.90
48264;DHT22;34086;51.076;13.722;2023-05-07T00:18:12;10.60;99.90
48264;DHT22;34086;51.076;13.722;2023-05-07T00:19:12;10.70;99.90
48264;DHT22;34086;51.076;13.722;2023-05-07T00:20:13;10.60;99.90
48264;DHT22;34086;51.076;13.722;2023-05-07T00:21:13;10.60;99.90
48264;DHT22;34086;51.076;13.722;2023-05-07T00:22:14;10.60;99.90
48264;DHT22;34086;51.076;13.722;2023-05-07T00:23:15;10.60;99.90
48264;DHT22;34086;51.076;13.722;2023-05-07T00:24:16;10.60;99.90
48264;DHT22;34086;51.076;13.722;2023-05-07T00:25:16;10.60;99.90
48264;DHT22;34086;51.076;13.722;2023-05-07T00:26:19;10.50;99.90
48264;DHT22;34086;51.076;13.722;2023-05-07T00:27:22;10.60;99.90
48264;DHT22;34086;51.076;13.722;2023-05-07T00:28:23;10.60;99.90
48264;DHT22;34086;51.076;13.722;2023-05-07T00:29:23;10.60;99.90
48264;DHT22;34086;51.076;13.722;2023-05-07T00:30:24;10.60;99.90
48264;DHT22;34086;51.076;13.722;2023-05-07T00:31:24;10.60;99.90
48264;DHT22;34086;51.076;13.722;2023-05-07T00:32:25;10.60;99.90
48264;DHT22;34086;51.076;13.722;2023-05-07T00:33:26;10.60;99.90
48264;DHT22;34086;51.076;13.722;2023-05-07T00:34:27;10.60;99.90
48264;DHT22;34086;51.076;13.722;2023-05-07T00:35:28;10.60;99.90
48264;DHT22;34086;51.076;13.722;2023-05-07T00:36:29;10.60;99.90
48264;DHT22;34086;51.076;13.722;2023-05-07T00:37:30;10.60;99.90
48264;DHT22;34086;51.076;13.722;2023-05-07T00:38:31;10.60;99.90
48264;DHT22;34086;51.076;13.722;2023-05-07T00:39:32;10.60;99.90
48264;DHT22;34086;51.076;13.722;2023-05-07T00:40:33;10.60;99.90
48264;DHT22;34086;51.076;13.722;2023-05-07T00:41:33;10.60;99.90
48264;DHT22;34086;51.076;13.722;2023-05-07T00:42:34;10.60;99.90
48264;DHT22;34086;51.076;13.722;2023-05-07T00:43:35;10.60;99.90
48264;DHT22;34086;51.076;13.722;2023-05-07T00:44:36;10.60;99.90
48264;DHT22;34086;51.076;13.722;2023-05-07T00:45:36;10.60;99.90
48264;DHT22;34086;51.076;13.722;2023-05-07T00:46:37;10.60;99.90
48264;DHT22;34086;51.076;13.722;2023-05-07T00:47:39;10.60;99.90
48264;DHT22;34086;51.076;13.722;2023-05-07T00:48:40;10.60;99.90
48264;DHT22;34086;51.076;13.722;2023-05-07T00:49:44;10.60;99.90
48264;DHT22;34086;51.076;13.722;2023-05-07T00:50:46;10.60;99.90
48264;DHT22;34086;51.076;13.722;2023-05-07T00:51:47;10.60;99.90
48264;DHT22;34086;51.076;13.722;2023-05-07T00:52:48;10.60;99.90
48264;DHT22;34086;51.076;13.722;2023-05-07T00:53:48;10.60;99.90
48264;DHT22;34086;51.076;13.722;2023-05-07T00:54:49;10.60;99.90
48264;DHT22;34086;51.076;13.722;2023-05-07T00:55:50;10.60;99.90
48264;DHT22;34086;51.076;13.722;2023-05-07T00:56:51;10.60;99.90
48264;DHT22;34086;51.076;13.722;2023-05-07T00:57:52;10.60;99.90
48264;DHT22;34086;51.076;13.722;2023-05-07T00:58:53;10.50;99.90
48264;DHT22;34086;51.076;13.722;2023-05-07T00:59:53;10.50;99.90
48264;DHT22;34086;51.076;13.722;2023-05-07T01:00:54;10.50;99.90
48264;DHT22;34086;51.076;13.722;2023-05-07T01:01:54;10.50;99.90
48264;DHT22;34086;51.076;13.722;2023-05-07T01:02:55;10.40;99.90
48264;DHT22;34086;51.076;13.722;2023-05-07T01:03:56;10.50;99.90
48264;DHT22;34086;51.076;13.722;2023-05-07T01:04:56;10.50;99.90
48264;DHT22;34086;51.076;13.722;2023-05-07T01:05:59;10.50;99.90
48264;DHT22;34086;51.076;13.722;2023-05-07T01:07:00;10.50;99.90
48264;DHT22;34086;51.076;13.722;2023-05-07T01:08:02;10.50;99.90
48264;DHT22;34086;51.076;13.722;2023-05-07T01:09:05;10.50;99.90
48264;DHT22;34086;51.076;13.722;2023-05-07T01:10:06;10.60;99.90
48264;DHT22;34086;51.076;13.722;2023-05-07T01:11:08;10.60;99.90
48264;DHT22;34086;51.076;13.722;2023-05-07T01:12:09;10.60;99.90
48264;DHT22;34086;51.076;13.722;2023-05-07T01:13:11;10.60;99.90
48264;DHT22;34086;51.076;13.722;2023-05-07T01:14:12;10.50;99.90
48264;DHT22;34086;51.076;13.722;2023-05-07T01:15:13;10.50;99.90
48264;DHT22;34086;51.076;13.722;2023-05-07T01:16:14;10.50;99.90
48264;DHT22;34086;51.076;13.722;2023-05-07T01:17:16;10.60;99.90
48264;DHT22;34086;51.076;13.722;2023-05-07T01:18:17;10.50;99.90
48264;DHT22;34086;51.076;13.722;2023-05-07T01:19:18;10.50;99.90
48264;DHT22;34086;51.076;13.722;2023-05-07T01:20:19;10.50;99.90
48264;DHT22;34086;51.076;13.722;2023-05-07T01:21:25;10.50;99.90
48264;DHT22;34086;51.076;13.722;2023-05-07T01:22:35;10.50;99.90
48264;DHT22;34086;51.076;13.722;2023-05-07T01:23:38;10.50;99.90
48264;DHT22;34086;51.076;13.722;2023-05-07T01:24:39;10.50;99.90
48264;DHT22;34086;51.076;13.722;2023-05-07T01:25:41;10.50;99.90
48264;DHT22;34086;51.076;13.722;2023-05-07T01:26:43;10.60;99.90
48264;DHT22;34086;51.076;13.722;2023-05-07T01:27:45;10.60;99.90
48264;DHT22;34086;51.076;13.722;2023-05-07T01:28:46;10.60;99.90
48264;DHT22;34086;51.076;13.722;2023-05-07T01:29:46;10.60;99.90
48264;DHT22;34086;51.076;13.722;2023-05-07T01:30:51;10.60;99.90
48264;DHT22;34086;51.076;13.722;2023-05-07T01:31:57;10.60;99.90
48264;DHT22;34086;51.076;13.722;2023-05-07T01:33:00;10.60;99.90
48264;DHT22;34086;51.076;13.722;2023-05-07T01:34:03;10.60;99.90
48264;DHT22;34086;51.076;13.722;2023-05-07T01:35:07;10.60;99.90
48264;DHT22;34086;51.076;13.722;2023-05-07T01:36:11;10.60;99.90
48264;DHT22;34086;51.076;13.722;2023-05-07T01:37:13;10.60;99.90
48264;DHT22;34086;51.076;13.722;2023-05-07T01:38:13;10.60;99.90
48264;DHT22;34086;51.076;13.722;2023-05-07T01:39:15;10.60;99.90
48264;DHT22;34086;51.076;13.722;2023-05-07T01:40:16;10.60;99.90
48264;DHT22;34086;51.076;13.722;2023-05-07T01:41:18;10.60;99.90
48264;DHT22;34086;51.076;13.722;2023-05-07T01:42:19;10.60;99.90
48264;DHT22;34086;51.076;13.722;2023-05-07T01:43:20;10.60;99.90
48264;DHT22;34086;51.076;13.722;2023-05-07T01:44:21;10.60;99.90
48264;DHT22;34086;51.076;13.722;2023-05-07T01:45:23;10.60;99.90
48264;DHT22;34086;51.076;13.722;2023-05-07T01:46:24;10.60;99.90
48264;DHT22;34086;51.076;13.722;2023-05-07T01:47:26;10.60;99.90
48264;DHT22;34086;51.076;13.722;2023-05-07T01:48:27;10.60;99.90
48264;DHT22;34086;51.076;13.722;2023-05-07T01:49:28;10.60;99.90
48264;DHT22;34086;51.076;13.722;2023-05-07T01:50:30;10.60;99.90
48264;DHT22;34086;51.076;13.722;2023-05-07T01:51:32;10.60;99.90
48264;DHT22;34086;51.076;13.722;2023-05-07T01:52:34;10.60;99.90
48264;DHT22;34086;51.076;13.722;2023-05-07T01:53:39;10.60;99.90
48264;DHT22;34086;51.076;13.722;2023-05-07T01:54:40;10.50;99.90
48264;DHT22;34086;51.076;13.722;2023-05-07T01:55:40;10.50;99.90
48264;DHT22;34086;51.076;13.722;2023-05-07T01:56:41;10.50;99.90
48264;DHT22;34086;51.076;13.722;2023-05-07T01:57:42;10.50;99.90
48264;DHT22;34086;51.076;13.722;2023-05-07T01:58:44;10.50;99.90
48264;DHT22;34086;51.076;13.722;2023-05-07T01:59:46;10.50;99.90
48264;DHT22;34086;51.076;13.722;2023-05-07T02:00:47;10.50;99.90
48264;DHT22;34086;51.076;13.722;2023-05-07T02:01:47;10.50;99.90
48264;DHT22;34086;51.076;13.722;2023-05-07T02:02:48;10.50;99.90
48264;DHT22;34086;51.076;13.722;2023-05-07T02:04:01;10.50;99.90
48264;DHT22;34086;51.076;13.722;2023-05-07T02:05:03;10.50;99.90
48264;DHT22;34086;51.076;13.722;2023-05-07T02:06:04;10.50;99.90
48264;DHT22;34086;51.076;13.722;2023-05-07T02:07:11;10.50;99.90
48264;DHT22;34086;51.076;13.722;2023-05-07T02:08:12;10.50;99.90
48264;DHT22;34086;51.076;13.722;2023-05-07T02:09:13;10.50;99.90
48264;DHT22;34086;51.076;13.722;2023-05-07T02:10:16;10.50;99.90
48264;DHT22;34086;51.076;13.722;2023-05-07T02:11:17;10.50;99.90
48264;DHT22;34086;51.076;13.722;2023-05-07T02:12:18;10.50;99.90
48264;DHT22;34086;51.076;13.722;2023-05-07T02:13:18;10.50;99.90
48264;DHT22;34086;51.076;13.722;2023-05-07T02:14:20;10.50;99.90
48264;DHT22;34086;51.076;13.722;2023-05-07T02:15:20;10.50;99.90
48264;DHT22;34086;51.076;13.722;2023-05-07T02:16:21;10.50;99.90
48264;DHT22;34086;51.076;13.722;2023-05-07T02:17:23;10.50;99.90
48264;DHT22;34086;51.076;13.722;2023-05-07T02:18:25;10.50;99.90
48264;DHT22;34086;51.076;13.722;2023-05-07T02:19:25;10.50;99.90
48264;DHT22;34086;51.076;13.722;2023-05-07T02:20:26;10.50;99.90
48264;DHT22;34086;51.076;13.722;2023-05-07T02:21:27;10.50;99.90
48264;DHT22;34086;51.076;13.722;2023-05-07T02:22:27;10.50;99.90
48264;DHT22;34086;51.076;13.722;2023-05-07T02:23:28;10.50;99.90
48264;DHT22;34086;51.076;13.722;2023-05-07T02:24:29;10.50;99.90
48264;DHT22;34086;51.076;13.722;2023-05-07T02:25:30;10.50;99.90
48264;DHT22;34086;51.076;13.722;2023-05-07T02:26:31;10.50;99.90
48264;DHT22;34086;51.076;13.722;2023-05-07T02:27:32;10.50;99.90
48264;DHT22;34086;51.076;13.722;2023-05-07T02:28:32;10.50;99.90
48264;DHT22;34086;51.076;13.722;2023-05-07T02:29:37;10.50;99.90
48264;DHT22;34086;51.076;13.722;2023-05-07T02:30:38;10.50;99.90
48264;DHT22;34086;51.076;13.722;2023-05-07T02:31:38;10.40;99.90
48264;DHT22;34086;51.076;13.722;2023-05-07T02:32:39;10.40;99.90
48264;DHT22;34086;51.076;13.722;2023-05-07T02:33:40;10.50;99.90
48264;DHT22;34086;51.076;13.722;2023-05-07T02:34:43;10.50;99.90
48264;DHT22;34086;51.076;13.722;2023-05-07T02:35:44;10.50;99.90
48264;DHT22;34086;51.076;13.722;2023-05-07T02:36:47;10.50;99.90
48264;DHT22;34086;51.076;13.722;2023-05-07T02:37:50;10.50;99.90
48264;DHT22;34086;51.076;13.722;2023-05-07T02:38:51;10.50;99.90
48264;DHT22;34086;51.076;13.722;2023-05-07T02:39:51;10.40;99.90
48264;DHT22;34086;51.076;13.722;2023-05-07T02:40:52;10.50;99.90
48264;DHT22;34086;51.076;13.722;2023-05-07T02:41:52;10.40;99.90
48264;DHT22;34086;51.076;13.722;2023-05-07T02:42:53;10.40;99.90
48264;DHT22;34086;51.076;13.722;2023-05-07T02:43:54;10.40;99.90
48264;DHT22;34086;51.076;13.722;2023-05-07T02:44:54;10.40;99.90
48264;DHT22;34086;51.076;13.722;2023-05-07T02:46:08;10.40;99.90
48264;DHT22;34086;51.076;13.722;2023-05-07T02:47:14;10.30;99.90
48264;DHT22;34086;51.076;13.722;2023-05-07T02:48:16;10.30;99.90
48264;DHT22;34086;51.076;13.722;2023-05-07T02:49:17;10.30;99.90
48264;DHT22;34086;51.076;13.722;2023-05-07T02:50:17;10.30;99.90
48264;DHT22;34086;51.076;13.722;2023-05-07T02:51:20;10.30;99.90
48264;DHT22;34086;51.076;13.722;2023-05-07T02:52:22;10.30;99.90
48264;DHT22;34086;51.076;13.722;2023-05-07T02:53:22;10.30;99.90
48264;DHT22;34086;51.076;13.722;2023-05-07T02:54:25;10.30;99.90
48264;DHT22;34086;51.076;13.722;2023-05-07T02:55:26;10.30;99.90
48264;DHT22;34086;51.076;13.722;2023-05-07T02:56:26;10.30;99.90
48264;DHT22;34086;51.076;13.722;2023-05-07T02:57:27;10.30;99.90
48264;DHT22;34086;51.076;13.722;2023-05-07T02:58:28;10.30;99.90
48264;DHT22;34086;51.076;13.722;2023-05-07T02:59:29;10.30;99.90
48264;DHT22;34086;51.076;13.722;2023-05-07T03:00:31;10.30;99.90
48264;DHT22;34086;51.076;13.722;2023-05-07T03:01:43;10.20;99.90
48264;DHT22;34086;51.076;13.722;2023-05-07T03:02:45;10.30;99.90
48264;DHT22;34086;51.076;13.722;2023-05-07T03:03:46;10.30;99.90
48264;DHT22;34086;51.076;13.722;2023-05-07T03:04:47;10.30;99.90
48264;DHT22;34086;51.076;13.722;2023-05-07T03:05:48;10.30;99.90
48264;DHT22;34086;51.076;13.722;2023-05-07T03:06:49;10.30;99.90
48264;DHT22;34086;51.076;13.722;2023-05-07T03:07:49;10.30;99.90
48264;DHT22;34086;51.076;13.722;2023-05-07T03:08:50;10.30;99.90
48264;DHT22;34086;51.076;13.722;2023-05-07T03:09:51;10.30;99.90
48264;DHT22;34086;51.076;13.722;2023-05-07T03:10:51;10.20;99.90
48264;DHT22;34086;51.076;13.722;2023-05-07T03:11:52;10.20;99.90
48264;DHT22;34086;51.076;13.722;2023-05-07T03:12:52;10.20;99.90
48264;DHT22;34086;51.076;13.722;2023-05-07T03:13:53;10.20;99.90
48264;DHT22;34086;51.076;13.722;2023-05-07T03:14:55;10.20;99.90
48264;DHT22;34086;51.076;13.722;2023-05-07T03:15:56;10.20;99.90
48264;DHT22;34086;51.076;13.722;2023-05-07T03:16:56;10.20;99.90
48264;DHT22;34086;51.076;13.722;2023-05-07T03:17:57;10.20;99.90
48264;DHT22;34086;51.076;13.722;2023-05-07T03:18:58;10.20;99.90
48264;DHT22;34086;51.076;13.722;2023-05-07T03:19:58;10.20;99.90
48264;DHT22;34086;51.076;13.722;2023-05-07T03:20:59;10.20;99.90
48264;DHT22;34086;51.076;13.722;2023-05-07T03:22:00;10.20;99.90
48264;DHT22;34086;51.076;13.722;2023-05-07T03:23:00;10.20;99.90
48264;DHT22;34086;51.076;13.722;2023-05-07T03:24:01;10.20;99.90
48264;DHT22;34086;51.076;13.722;2023-05-07T03:25:02;10.10;99.90
48264;DHT22;34086;51.076;13.722;2023-05-07T03:26:02;10.10;99.90
48264;DHT22;34086;51.076;13.722;2023-05-07T03:27:03;10.10;99.90
48264;DHT22;34086;51.076;13.722;2023-05-07T03:28:03;10.10;99.90
48264;DHT22;34086;51.076;13.722;2023-05-07T03:29:13;10.00;99.90
48264;DHT22;34086;51.076;13.722;2023-05-07T03:30:13;10.00;99.90
48264;DHT22;34086;51.076;13.722;2023-05-07T03:31:14;10.00;99.90
48264;DHT22;34086;51.076;13.722;2023-05-07T03:32:14;10.00;99.90
48264;DHT22;34086;51.076;13.722;2023-05-07T03:33:15;10.00;99.90
48264;DHT22;34086;51.076;13.722;2023-05-07T03:34:16;10.00;99.90
48264;DHT22;34086;51.076;13.722;2023-05-07T03:35:22;9.90;99.90
48264;DHT22;34086;51.076;13.722;2023-05-07T03:36:23;9.90;99.90
48264;DHT22;34086;51.076;13.722;2023-05-07T03:37:24;9.90;99.90
48264;DHT22;34086;51.076;13.722;2023-05-07T03:38:24;10.00;99.90
48264;DHT22;34086;51.076;13.722;2023-05-07T03:39:25;10.00;99.90
48264;DHT22;34086;51.076;13.722;2023-05-07T03:40:26;10.00;99.90
48264;DHT22;34086;51.076;13.722;2023-05-07T03:41:28;10.00;99.90
48264;DHT22;34086;51.076;13.722;2023-05-07T03:42:30;10.00;99.90
48264;DHT22;34086;51.076;13.722;2023-05-07T03:43:30;10.00;99.90
48264;DHT22;34086;51.076;13.722;2023-05-07T03:44:37;10.00;99.90
48264;DHT22;34086;51.076;13.722;2023-05-07T03:45:38;10.00;99.90
48264;DHT22;34086;51.076;13.722;2023-05-07T03:46:52;10.00;99.90
48264;DHT22;34086;51.076;13.722;2023-05-07T03:47:52;9.90;99.90
48264;DHT22;34086;51.076;13.722;2023-05-07T03:48:55;10.00;99.90
48264;DHT22;34086;51.076;13.722;2023-05-07T03:49:55;9.90;99.90
48264;DHT22;34086;51.076;13.722;2023-05-07T03:50:59;9.90;99.90
48264;DHT22;34086;51.076;13.722;2023-05-07T03:52:03;10.00;99.90
48264;DHT22;34086;51.076;13.722;2023-05-07T03:53:05;10.00;99.90
48264;DHT22;34086;51.076;13.722;2023-05-07T03:54:09;10.00;99.90
48264;DHT22;34086;51.076;13.722;2023-05-07T03:55:15;10.00;99.90
48264;DHT22;34086;51.076;13.722;2023-05-07T03:56:22;10.00;99.90
48264;DHT22;34086;51.076;13.722;2023-05-07T03:57:28;10.00;99.90
48264;DHT22;34086;51.076;13.722;2023-05-07T03:58:28;10.00;99.90
48264;DHT22;34086;51.076;13.722;2023-05-07T03:59:32;10.10;99.90
48264;DHT22;34086;51.076;13.722;2023-05-07T04:00:33;10.10;99.90
48264;DHT22;34086;51.076;13.722;2023-05-07T04:01:43;10.10;99.90
48264;DHT22;34086;51.076;13.722;2023-05-07T04:02:49;10.10;99.90
48264;DHT22;34086;51.076;13.722;2023-05-07T04:03:56;10.10;99.90
48264;DHT22;34086;51.076;13.722;2023-05-07T04:04:57;10.10;99.90
48264;DHT22;34086;51.076;13.722;2023-05-07T04:05:59;10.10;99.90
48264;DHT22;34086;51.076;13.722;2023-05-07T04:06:59;10.10;99.90
48264;DHT22;34086;51.076;13.722;2023-05-07T04:08:01;10.10;99.90
48264;DHT22;34086;51.076;13.722;2023-05-07T04:09:09;10.10;99.90
48264;DHT22;34086;51.076;13.722;2023-05-07T04:10:12;10.00;99.90
48264;DHT22;34086;51.076;13.722;2023-05-07T04:11:15;10.10;99.90
48264;DHT22;34086;51.076;13.722;2023-05-07T04:12:16;10.10;99.90
48264;DHT22;34086;51.076;13.722;2023-05-07T04:13:16;10.10;99.90
48264;DHT22;34086;51.076;13.722;2023-05-07T04:14:17;10.10;99.90
48264;DHT22;34086;51.076;13.722;2023-05-07T04:15:18;10.10;99.90
48264;DHT22;34086;51.076;13.722;2023-05-07T04:16:18;10.10;99.90
48264;DHT22;34086;51.076;13.722;2023-05-07T04:17:19;10.10;99.90
48264;DHT22;34086;51.076;13.722;2023-05-07T04:18:20;10.10;99.90
48264;DHT22;34086;51.076;13.722;2023-05-07T04:19:22;10.10;99.90
48264;DHT22;34086;51.076;13.722;2023-05-07T04:20:26;10.10;99.90
48264;DHT22;34086;51.076;13.722;2023-05-07T04:21:33;10.10;99.90
48264;DHT22;34086;51.076;13.722;2023-05-07T04:22:33;10.10;99.90
48264;DHT22;34086;51.076;13.722;2023-05-07T04:23:34;10.10;99.90
48264;DHT22;34086;51.076;13.722;2023-05-07T04:24:38;10.20;99.90
48264;DHT22;34086;51.076;13.722;2023-05-07T04:25:38;10.20;99.90
48264;DHT22;34086;51.076;13.722;2023-05-07T04:26:45;10.20;99.90
48264;DHT22;34086;51.076;13.722;2023-05-07T04:27:45;10.20;99.90
48264;DHT22;34086;51.076;13.722;2023-05-07T04:28:47;10.20;99.90
48264;DHT22;34086;51.076;13.722;2023-05-07T04:29:49;10.20;99.90
48264;DHT22;34086;51.076;13.722;2023-05-07T04:30:51;10.20;99.90
48264;DHT22;34086;51.076;13.722;2023-05-07T04:31:53;10.20;99.90
48264;DHT22;34086;51.076;13.722;2023-05-07T04:32:54;10.20;99.90
48264;DHT22;34086;51.076;13.722;2023-05-07T04:33:55;10.20;99.90
48264;DHT22;34086;51.076;13.722;2023-05-07T04:34:56;10.20;99.90
48264;DHT22;34086;51.076;13.722;2023-05-07T04:35:58;10.20;99.90
48264;DHT22;34086;51.076;13.722;2023-05-07T04:37:03;10.10;99.90
48264;DHT22;34086;51.076;13.722;2023-05-07T04:38:04;10.10;99.90
48264;DHT22;34086;51.076;13.722;2023-05-07T04:39:05;10.10;99.90
48264;DHT22;34086;51.076;13.722;2023-05-07T04:40:06;10.10;99.90
48264;DHT22;34086;51.076;13.722;2023-05-07T04:41:08;10.10;99.90
48264;DHT22;34086;51.076;13.722;2023-05-07T04:42:17;10.10;99.90
48264;DHT22;34086;51.076;13.722;2023-05-07T04:43:18;10.10;99.90
48264;DHT22;34086;51.076;13.722;2023-05-07T04:44:23;10.10;99.90
48264;DHT22;34086;51.076;13.722;2023-05-07T04:45:25;10.10;99.90
48264;DHT22;34086;51.076;13.722;2023-05-07T04:46:28;10.10;99.90
48264;DHT22;34086;51.076;13.722;2023-05-07T04:47:31;10.10;99.90
48264;DHT22;34086;51.076;13.722;2023-05-07T04:48:32;10.10;99.90
48264;DHT22;34086;51.076;13.722;2023-05-07T04:49:37;10.20;99.90
48264;DHT22;34086;51.076;13.722;2023-05-07T04:50:38;10.20;99.90
48264;DHT22;34086;51.076;13.722;2023-05-07T04:51:39;10.20;99.90
48264;DHT22;34086;51.076;13.722;2023-05-07T04:52:44;10.20;99.90
48264;DHT22;34086;51.076;13.722;2023-05-07T04:53:44;10.30;99.90
48264;DHT22;34086;51.076;13.722;2023-05-07T04:54:45;10.30;99.90
48264;DHT22;34086;51.076;13.722;2023-05-07T04:55:46;10.20;99.90
48264;DHT22;34086;51.076;13.722;2023-05-07T04:56:47;10.30;99.90
48264;DHT22;34086;51.076;13.722;2023-05-07T04:57:48;10.30;99.90
48264;DHT22;34086;51.076;13.722;2023-05-07T04:58:50;10.20;99.90
48264;DHT22;34086;51.076;13.722;2023-05-07T04:59:54;10.30;99.90
48264;DHT22;34086;51.076;13.722;2023-05-07T05:00:54;10.30;99.90
48264;DHT22;34086;51.076;13.722;2023-05-07T05:01:56;10.30;99.90
48264;DHT22;34086;51.076;13.722;2023-05-07T05:02:58;10.30;99.90
48264;DHT22;34086;51.076;13.722;2023-05-07T05:03:59;10.30;99.90
48264;DHT22;34086;51.076;13.722;2023-05-07T05:05:01;10.30;99.90
48264;DHT22;34086;51.076;13.722;2023-05-07T05:06:04;10.30;99.90
48264;DHT22;34086;51.076;13.722;2023-05-07T05:07:08;10.30;99.90
48264;DHT22;34086;51.076;13.722;2023-05-07T05:08:08;10.30;99.90
48264;DHT22;34086;51.076;13.722;2023-05-07T05:09:12;10.30;99.90
48264;DHT22;34086;51.076;13.722;2023-05-07T05:10:15;10.30;99.90
48264;DHT22;34086;51.076;13.722;2023-05-07T05:11:17;10.40;99.90
48264;DHT22;34086;51.076;13.722;2023-05-07T05:12:18;10.40;99.90
48264;DHT22;34086;51.076;13.722;2023-05-07T05:13:18;10.40;99.90
48264;DHT22;34086;51.076;13.722;2023-05-07T05:14:20;10.40;99.90
48264;DHT22;34086;51.076;13.722;2023-05-07T05:15:20;10.40;99.90
48264;DHT22;34086;51.076;13.722;2023-05-07T05:16:21;10.50;99.90
48264;DHT22;34086;51.076;13.722;2023-05-07T05:17:22;10.50;99.90
48264;DHT22;34086;51.076;13.722;2023-05-07T05:18:23;10.50;99.90
48264;DHT22;34086;51.076;13.722;2023-05-07T05:19:23;10.50;99.90
48264;DHT22;34086;51.076;13.722;2023-05-07T05:20:24;10.50;99.90
48264;DHT22;34086;51.076;13.722;2023-05-07T05:21:25;10.50;99.90
48264;DHT22;34086;51.076;13.722;2023-05-07T05:22:29;10.50;99.90
48264;DHT22;34086;51.076;13.722;2023-05-07T05:23:32;10.50;99.90
48264;DHT22;34086;51.076;13.722;2023-05-07T05:24:33;10.60;99.90
48264;DHT22;34086;51.076;13.722;2023-05-07T05:25:35;10.60;99.90
48264;DHT22;34086;51.076;13.722;2023-05-07T05:26:36;10.60;99.90
48264;DHT22;34086;51.076;13.722;2023-05-07T05:27:37;10.60;99.90
48264;DHT22;34086;51.076;13.722;2023-05-07T05:28:39;10.60;99.90
48264;DHT22;34086;51.076;13.722;2023-05-07T05:29:40;10.60;99.90
48264;DHT22;34086;51.076;13.722;2023-05-07T05:30:40;10.60;99.90
48264;DHT22;34086;51.076;13.722;2023-05-07T05:31:42;10.60;99.90
48264;DHT22;34086;51.076;13.722;2023-05-07T05:32:43;10.60;99.90
48264;DHT22;34086;51.076;13.722;2023-05-07T05:33:43;10.60;99.90
48264;DHT22;34086;51.076;13.722;2023-05-07T05:34:44;10.60;99.90
48264;DHT22;34086;51.076;13.722;2023-05-07T05:35:45;10.60;99.90
48264;DHT22;34086;51.076;13.722;2023-05-07T05:36:46;10.60;99.90
48264;DHT22;34086;51.076;13.722;2023-05-07T05:37:48;10.70;99.90
48264;DHT22;34086;51.076;13.722;2023-05-07T05:38:51;10.60;99.90
48264;DHT22;34086;51.076;13.722;2023-05-07T05:39:52;10.60;99.90
48264;DHT22;34086;51.076;13.722;2023-05-07T05:40:54;10.60;99.90
48264;DHT22;34086;51.076;13.722;2023-05-07T05:41:56;10.60;99.90
48264;DHT22;34086;51.076;13.722;2023-05-07T05:42:56;10.60;99.90
48264;DHT22;34086;51.076;13.722;2023-05-07T05:43:58;10.50;99.90
48264;DHT22;34086;51.076;13.722;2023-05-07T05:44:59;10.60;99.90
48264;DHT22;34086;51.076;13.722;2023-05-07T05:46:01;10.60;99.90
48264;DHT22;34086;51.076;13.722;2023-05-07T05:47:03;10.60;99.90
48264;DHT22;34086;51.076;13.722;2023-05-07T05:48:04;10.60;99.90
48264;DHT22;34086;51.076;13.722;2023-05-07T05:49:05;10.60;99.90
48264;DHT22;34086;51.076;13.722;2023-05-07T05:50:06;10.70;99.90
48264;DHT22;34086;51.076;13.722;2023-05-07T05:51:07;10.70;99.90
48264;DHT22;34086;51.076;13.722;2023-05-07T05:52:08;10.70;99.90
48264;DHT22;34086;51.076;13.722;2023-05-07T05:53:08;10.70;99.90
48264;DHT22;34086;51.076;13.722;2023-05-07T05:54:09;10.60;99.90
48264;DHT22;34086;51.076;13.722;2023-05-07T05:55:10;10.60;99.90
48264;DHT22;34086;51.076;13.722;2023-05-07T05:56:12;10.60;99.90
48264;DHT22;34086;51.076;13.722;2023-05-07T05:57:15;10.70;99.90
48264;DHT22;34086;51.076;13.722;2023-05-07T05:58:16;10.60;99.90
48264;DHT22;34086;51.076;13.722;2023-05-07T05:59:24;10.70;99.90
48264;DHT22;34086;51.076;13.722;2023-05-07T06:00:27;10.60;99.90
48264;DHT22;34086;51.076;13.722;2023-05-07T06:01:36;10.70;99.90
48264;DHT22;34086;51.076;13.722;2023-05-07T06:02:38;10.70;99.90
48264;DHT22;34086;51.076;13.722;2023-05-07T06:03:38;10.70;99.90
48264;DHT22;34086;51.076;13.722;2023-05-07T06:04:46;10.70;99.90
48264;DHT22;34086;51.076;13.722;2023-05-07T06:05:50;10.80;99.90
48264;DHT22;34086;51.076;13.722;2023-05-07T06:06:52;10.80;99.90
48264;DHT22;34086;51.076;13.722;2023-05-07T06:07:53;10.80;99.90
48264;DHT22;34086;51.076;13.722;2023-05-07T06:08:53;10.90;99.90
48264;DHT22;34086;51.076;13.722;2023-05-07T06:09:59;10.90;99.90
48264;DHT22;34086;51.076;13.722;2023-05-07T06:11:01;10.90;99.90
48264;DHT22;34086;51.076;13.722;2023-05-07T06:12:04;11.00;99.90
48264;DHT22;34086;51.076;13.722;2023-05-07T06:13:05;11.00;99.90
48264;DHT22;34086;51.076;13.722;2023-05-07T06:14:07;11.00;99.90
48264;DHT22;34086;51.076;13.722;2023-05-07T06:15:09;11.00;99.90
48264;DHT22;34086;51.076;13.722;2023-05-07T06:16:10;11.00;99.90
48264;DHT22;34086;51.076;13.722;2023-05-07T06:17:11;11.00;99.90
48264;DHT22;34086;51.076;13.722;2023-05-07T06:18:12;11.00;99.90
48264;DHT22;34086;51.076;13.722;2023-05-07T06:19:16;10.90;99.90
48264;DHT22;34086;51.076;13.722;2023-05-07T06:20:18;10.90;99.90
48264;DHT22;34086;51.076;13.722;2023-05-07T06:21:19;10.90;99.90
48264;DHT22;34086;51.076;13.722;2023-05-07T06:22:20;10.90;99.90
48264;DHT22;34086;51.076;13.722;2023-05-07T06:23:20;10.90;99.90
48264;DHT22;34086;51.076;13.722;2023-05-07T06:24:21;10.80;99.90
48264;DHT22;34086;51.076;13.722;2023-05-07T06:25:22;10.90;99.90